createdAt,value
2018-02-21T00:00:22.709Z,21.87
2018-02-21T00:02:50.356Z,18.73
2018-02-21T00:05:17.984Z,22.33
2018-02-21T00:07:45.528Z,20.50
2018-02-21T00:10:13.847Z,22.53
2018-02-21T00:12:41.505Z,22.63
2018-02-21T00:15:09.451Z,20.40
2018-02-21T00:17:37.009Z,21.60
2018-02-21T00:20:04.569Z,22.03
2018-02-21T00:22:32.240Z,21.77
2018-02-21T00:24:59.767Z,21.77
2018-02-21T00:27:28.044Z,20.63
2018-02-21T00:29:56.400Z,21.03
2018-02-21T00:32:24.152Z,21.30
2018-02-21T00:34:51.698Z,21.33
2018-02-21T00:37:19.217Z,20.57
2018-02-21T00:39:46.780Z,18.20
2018-02-21T00:42:14.436Z,21.07
2018-02-21T00:44:41.974Z,21.03
2018-02-21T00:47:09.490Z,20.03
2018-02-21T00:49:37.055Z,20.97
2018-02-21T00:52:04.608Z,20.90
2018-02-21T00:54:32.185Z,21.27
2018-02-21T00:56:59.748Z,21.43
2018-02-21T00:59:27.344Z,20.63
2018-02-21T01:01:55.640Z,21.10
2018-02-21T01:04:23.191Z,21.27
2018-02-21T01:06:51.498Z,21.93
2018-02-21T01:09:19.195Z,21.30
2018-02-21T01:11:46.738Z,20.43
2018-02-21T01:14:14.825Z,21.20
2018-02-21T01:16:42.423Z,21.13
2018-02-21T01:19:10.146Z,21.27
2018-02-21T01:21:37.681Z,21.70
2018-02-21T01:24:05.232Z,21.33
2018-02-21T01:26:32.773Z,22.27
2018-02-21T01:29:01.598Z,20.30
2018-02-21T01:31:29.142Z,21.33
2018-02-21T01:33:56.672Z,21.10
2018-02-21T01:38:58.856Z,22.07
2018-02-21T01:41:26.395Z,21.63
2018-02-21T01:43:53.926Z,22.20
2018-02-21T01:46:21.465Z,21.10
2018-02-21T01:48:49.688Z,21.83
2018-02-21T01:51:17.702Z,21.80
2018-02-21T01:53:45.245Z,21.37
2018-02-21T01:56:13.780Z,20.87
2018-02-21T01:58:41.360Z,21.97
2018-02-21T02:01:08.909Z,22.10
2018-02-21T02:03:36.577Z,21.93
2018-02-21T02:06:05.621Z,22.27
2018-02-21T02:08:33.148Z,21.43
2018-02-21T02:11:00.707Z,21.20
2018-02-21T02:13:29.034Z,21.73
2018-02-21T02:15:56.571Z,20.93
2018-02-21T02:18:24.119Z,20.17
2018-02-21T02:20:52.821Z,20.83
2018-02-21T02:23:20.340Z,21.47
2018-02-21T02:25:48.652Z,21.13
2018-02-21T02:28:16.155Z,19.80
2018-02-21T02:30:43.891Z,20.00
2018-02-21T02:33:11.420Z,20.10
2018-02-21T02:35:39.911Z,19.03
2018-02-21T02:38:07.512Z,21.00
2018-02-21T02:40:35.972Z,21.00
2018-02-21T02:43:03.524Z,16.37
2018-02-21T02:45:31.065Z,16.63
2018-02-21T02:47:58.634Z,18.97
2018-02-21T02:50:26.234Z,20.03
2018-02-21T02:52:54.609Z,19.43
2018-02-21T02:55:22.143Z,18.17
2018-02-21T02:57:49.688Z,22.03
2018-02-21T03:00:17.281Z,20.00
2018-02-21T03:02:44.992Z,20.80
2018-02-21T03:05:13.910Z,20.60
2018-02-21T03:07:41.459Z,20.50
2018-02-21T03:10:09.782Z,20.73
2018-02-21T03:12:37.332Z,19.43
2018-02-21T03:15:04.895Z,20.93
2018-02-21T03:17:32.415Z,20.00
2018-02-21T03:20:00.768Z,20.67
2018-02-21T03:22:28.323Z,20.20
2018-02-21T03:24:55.852Z,20.33
2018-02-21T03:27:23.418Z,21.37
2018-02-21T03:29:50.949Z,21.50
2018-02-21T03:32:21.537Z,20.37
2018-02-21T03:34:49.316Z,21.20
2018-02-21T03:37:16.871Z,21.30
2018-02-21T03:39:45.173Z,20.60
2018-02-21T03:42:12.828Z,22.23
2018-02-21T03:44:41.228Z,22.17
2018-02-21T03:47:08.983Z,22.50
2018-02-21T03:49:36.989Z,20.30
2018-02-21T03:52:04.526Z,19.90
2018-02-21T03:54:32.135Z,20.50
2018-02-21T03:56:59.722Z,19.50
2018-02-21T03:59:27.217Z,19.73
2018-02-21T04:01:54.751Z,19.17
2018-02-21T04:04:22.539Z,18.97
2018-02-21T04:06:50.064Z,19.90
2018-02-21T04:09:17.611Z,17.67
2018-02-21T04:11:45.953Z,19.50
2018-02-21T04:14:13.488Z,19.93
2018-02-21T04:16:41.020Z,19.50
2018-02-21T04:19:08.528Z,19.50
2018-02-21T04:21:36.272Z,17.67
2018-02-21T04:24:03.891Z,18.87
2018-02-21T04:26:31.453Z,20.73
2018-02-21T04:28:59.022Z,19.20
2018-02-21T04:31:26.579Z,17.83
2018-02-21T04:33:55.093Z,20.63
2018-02-21T04:36:22.633Z,18.80
2018-02-21T04:38:50.147Z,18.27
2018-02-21T04:41:17.672Z,19.73
2018-02-21T04:43:45.290Z,19.13
2018-02-21T04:46:13.912Z,17.90
2018-02-21T04:48:41.557Z,21.77
2018-02-21T04:51:09.077Z,19.57
2018-02-21T04:53:36.619Z,21.10
2018-02-21T04:56:09.956Z,20.27
2018-02-21T04:58:43.963Z,21.00
2018-02-21T05:01:11.530Z,20.17
2018-02-21T05:03:39.110Z,21.70
2018-02-21T05:06:06.676Z,19.77
2018-02-21T05:08:34.192Z,20.03
2018-02-21T05:11:01.860Z,18.80
2018-02-21T05:13:30.317Z,21.33
2018-02-21T05:15:57.872Z,23.73
2018-02-21T05:18:25.622Z,23.27
2018-02-21T05:20:53.327Z,23.00
2018-02-21T05:23:20.848Z,21.67
2018-02-21T05:25:48.440Z,22.97
2018-02-21T05:28:16.013Z,22.63
2018-02-21T05:30:43.740Z,22.50
2018-02-21T05:33:12.265Z,21.83
2018-02-21T05:35:40.587Z,22.53
2018-02-21T05:38:08.273Z,22.07
2018-02-21T05:40:35.790Z,23.03
2018-02-21T05:43:03.370Z,23.30
2018-02-21T05:45:31.113Z,22.70
2018-02-21T05:47:58.634Z,23.83
2018-02-21T05:50:26.917Z,23.77
2018-02-21T05:52:55.245Z,23.70
2018-02-21T05:55:22.946Z,22.60
2018-02-21T05:57:50.468Z,22.30
2018-02-21T06:00:18.062Z,23.43
2018-02-21T06:02:45.650Z,25.33
2018-02-21T06:05:13.956Z,22.93
2018-02-21T06:07:41.555Z,23.03
2018-02-21T06:10:09.155Z,23.33
2018-02-21T06:12:38.073Z,25.17
2018-02-21T06:15:05.792Z,24.20
2018-02-21T06:17:33.360Z,23.67
2018-02-21T06:20:01.061Z,23.43
2018-02-21T06:22:28.583Z,24.67
2018-02-21T06:24:57.092Z,23.27
2018-02-21T06:27:26.291Z,23.93
2018-02-21T06:29:54.066Z,23.87
2018-02-21T06:32:21.585Z,23.27
2018-02-21T06:34:49.217Z,23.43
2018-02-21T06:37:17.025Z,23.43
2018-02-21T06:39:44.619Z,22.73
2018-02-21T06:42:12.166Z,21.37
2018-02-21T06:44:39.797Z,24.63
2018-02-21T06:47:08.319Z,25.10
2018-02-21T06:49:35.836Z,24.47
2018-02-21T06:52:04.108Z,23.97
2018-02-21T06:54:32.028Z,23.90
2018-02-21T06:56:59.576Z,25.50
2018-02-21T06:59:27.440Z,25.63
2018-02-21T07:01:55.051Z,26.17
2018-02-21T07:04:22.659Z,23.77
2018-02-21T07:06:50.261Z,25.83
2018-02-21T07:09:17.809Z,25.67
2018-02-21T07:11:45.419Z,26.60
2018-02-21T07:14:13.755Z,23.63
2018-02-21T07:16:41.254Z,26.63
2018-02-21T07:19:09.007Z,26.57
2018-02-21T07:21:36.663Z,25.80
2018-02-21T07:24:05.069Z,22.77
2018-02-21T07:26:32.577Z,26.37
2018-02-21T07:29:00.583Z,24.77
2018-02-21T07:31:28.992Z,23.80
2018-02-21T07:33:56.553Z,23.33
2018-02-21T07:36:24.174Z,22.57
2018-02-21T07:38:51.734Z,22.07
2018-02-21T07:41:19.365Z,23.20
2018-02-21T07:43:47.322Z,22.50
2018-02-21T07:46:14.964Z,23.63
2018-02-21T07:48:42.567Z,22.03
2018-02-21T07:51:10.249Z,23.10
2018-02-21T07:53:38.510Z,24.30
2018-02-21T07:56:06.067Z,22.63
2018-02-21T07:58:34.366Z,23.73
2018-02-21T08:01:01.942Z,19.53
2018-02-21T08:03:29.727Z,22.07
2018-02-21T08:05:57.258Z,21.70
2018-02-21T08:08:25.523Z,23.97
2018-02-21T08:10:53.180Z,23.37
2018-02-21T08:13:24.104Z,23.10
2018-02-21T08:15:51.861Z,22.87
2018-02-21T08:18:19.444Z,22.90
2018-02-21T08:20:47.310Z,19.17
2018-02-21T08:23:15.659Z,20.73
2018-02-21T08:25:43.428Z,21.27
2018-02-21T08:28:11.934Z,23.10
2018-02-21T08:30:39.416Z,22.33
2018-02-21T08:33:07.888Z,21.87
2018-02-21T08:35:36.383Z,24.57
2018-02-21T08:38:04.389Z,21.93
2018-02-21T08:40:32.296Z,22.90
2018-02-21T08:42:59.826Z,23.50
2018-02-21T08:45:27.388Z,21.50
2018-02-21T08:47:54.968Z,22.40
2018-02-21T08:50:22.602Z,22.47
2018-02-21T08:52:50.212Z,22.03
2018-02-21T08:55:17.818Z,22.37
2018-02-21T08:57:45.339Z,21.93
2018-02-21T09:00:12.889Z,23.53
2018-02-21T09:02:40.435Z,22.23
2018-02-21T09:05:08.856Z,21.23
2018-02-21T09:07:36.415Z,22.20
2018-02-21T09:10:05.018Z,20.23
2018-02-21T09:12:32.552Z,20.83
2018-02-21T09:15:00.135Z,17.63
2018-02-21T09:17:27.768Z,20.63
2018-02-21T09:19:56.074Z,19.00
2018-02-21T09:22:23.617Z,20.97
2018-02-21T09:24:52.092Z,21.53
2018-02-21T09:27:19.652Z,20.07
2018-02-21T09:29:47.202Z,20.70
2018-02-21T09:32:14.824Z,19.33
2018-02-21T09:34:42.384Z,20.77
2018-02-21T09:37:10.080Z,19.57
2018-02-21T09:39:38.365Z,19.30
2018-02-21T09:42:06.058Z,20.10
2018-02-21T09:44:33.669Z,18.77
2018-02-21T09:47:01.229Z,18.67
2018-02-21T09:49:28.795Z,20.53
2018-02-21T09:51:57.068Z,19.47
2018-02-21T09:54:24.600Z,19.17
2018-02-21T09:56:52.123Z,19.47
2018-02-21T09:59:19.815Z,19.73
2018-02-21T10:01:47.358Z,17.63
2018-02-21T10:04:14.868Z,19.60
2018-02-21T10:06:42.698Z,19.17
2018-02-21T10:09:10.228Z,17.43
2018-02-21T10:11:37.770Z,18.17
2018-02-21T10:14:05.463Z,18.40
2018-02-21T10:16:33.036Z,18.93
2018-02-21T10:19:00.776Z,17.87
2018-02-21T10:21:29.231Z,18.23
2018-02-21T10:23:57.559Z,17.33
2018-02-21T10:26:25.962Z,17.93
2018-02-21T10:28:53.514Z,19.87
2018-02-21T10:31:21.240Z,19.10
2018-02-21T10:33:48.788Z,18.90
2018-02-21T10:36:16.351Z,18.33
2018-02-21T10:38:43.911Z,17.57
2018-02-21T10:41:11.660Z,17.43
2018-02-21T10:43:40.134Z,17.47
2018-02-21T10:46:07.839Z,16.87
2018-02-21T10:48:35.358Z,16.60
2018-02-21T10:51:03.113Z,16.20
2018-02-21T10:53:30.678Z,16.30
2018-02-21T10:55:58.222Z,17.13
2018-02-21T10:58:25.762Z,16.67
2018-02-21T11:00:59.047Z,15.17
2018-02-21T11:03:26.568Z,13.97
2018-02-21T11:05:54.106Z,12.97
2018-02-21T11:08:21.646Z,14.67
2018-02-21T11:10:49.937Z,13.30
2018-02-21T11:13:18.220Z,15.37
2018-02-21T11:15:45.732Z,14.83
2018-02-21T11:18:13.365Z,12.73
2018-02-21T11:20:40.915Z,13.27
2018-02-21T11:23:09.243Z,11.70
2018-02-21T11:25:37.217Z,11.63
2018-02-21T11:28:04.758Z,13.10
2018-02-21T11:30:32.277Z,11.70
2018-02-21T11:33:00.571Z,11.10
2018-02-21T11:35:28.167Z,12.77
2018-02-21T11:37:55.730Z,13.00
2018-02-21T11:40:23.354Z,12.37
2018-02-21T11:42:50.991Z,12.27
2018-02-21T11:45:18.530Z,10.73
2018-02-21T11:47:46.170Z,12.40
2018-02-21T11:50:13.879Z,12.53
2018-02-21T11:52:42.227Z,10.30
2018-02-21T11:55:10.069Z,10.33
2018-02-21T11:57:37.669Z,12.07
2018-02-21T12:00:05.279Z,12.00
2018-02-21T12:02:32.809Z,11.57
2018-02-21T12:05:01.172Z,11.20
2018-02-21T12:07:29.659Z,10.63
2018-02-21T12:09:57.199Z,11.77
2018-02-21T12:12:24.759Z,12.70
2018-02-21T12:14:52.325Z,11.20
2018-02-21T12:17:20.206Z,10.67
2018-02-21T12:19:47.776Z,9.73
2018-02-21T12:22:15.596Z,11.47
2018-02-21T12:24:43.104Z,11.13
2018-02-21T12:27:10.635Z,9.70
2018-02-21T12:29:38.382Z,7.80
2018-02-21T12:35:06.085Z,6.43
2018-02-21T12:37:33.630Z,9.53
2018-02-21T12:40:01.181Z,10.90
2018-02-21T12:42:28.791Z,9.20
2018-02-21T12:44:57.094Z,9.20
2018-02-21T12:47:24.628Z,8.57
2018-02-21T12:49:52.274Z,10.53
2018-02-21T12:52:20.645Z,11.07
2018-02-21T12:54:49.078Z,9.00
2018-02-21T12:57:17.004Z,9.23
2018-02-21T12:59:49.392Z,9.40
2018-02-21T13:02:17.670Z,9.30
2018-02-21T13:04:45.256Z,8.80
2018-02-21T13:07:12.842Z,8.37
2018-02-21T13:09:41.400Z,8.73
2018-02-21T13:12:09.087Z,8.67
2018-02-21T13:14:36.630Z,7.87
2018-02-21T13:17:04.214Z,9.47
2018-02-21T13:19:31.878Z,8.60
2018-02-21T13:21:59.459Z,9.30
2018-02-21T13:24:26.995Z,8.10
2018-02-21T13:26:54.703Z,8.73
2018-02-21T13:29:22.260Z,8.00
2018-02-21T13:31:50.640Z,7.27
2018-02-21T13:34:19.049Z,8.57
2018-02-21T13:36:47.248Z,8.00
2018-02-21T13:39:14.808Z,8.10
2018-02-21T13:41:42.372Z,6.57
2018-02-21T13:44:09.903Z,8.07
2018-02-21T13:46:37.411Z,8.63
2018-02-21T13:49:04.908Z,9.23
2018-02-21T13:51:32.496Z,7.37
2018-02-21T13:54:08.467Z,7.10
2018-02-21T13:56:36.321Z,7.20
2018-02-21T13:59:03.885Z,7.10
2018-02-21T14:01:32.268Z,7.07
2018-02-21T14:03:59.796Z,7.60
2018-02-21T14:06:27.350Z,8.17
2018-02-21T14:08:54.902Z,7.47
2018-02-21T14:11:22.457Z,8.47
2018-02-21T14:13:50.175Z,8.13
2018-02-21T14:16:17.691Z,8.93
2018-02-21T14:18:45.429Z,8.87
2018-02-21T14:21:13.201Z,8.40
2018-02-21T14:23:40.825Z,7.93
2018-02-21T14:26:08.371Z,6.60
2018-02-21T14:28:36.365Z,8.43
2018-02-21T14:31:03.937Z,9.43
2018-02-21T14:33:31.496Z,8.20
2018-02-21T14:36:00.022Z,9.23
2018-02-21T14:38:27.589Z,7.60
2018-02-21T14:40:55.115Z,8.40
2018-02-21T14:43:22.688Z,8.83
2018-02-21T14:45:50.207Z,9.13
2018-02-21T14:48:17.778Z,9.13
2018-02-21T14:50:46.098Z,8.23
2018-02-21T14:53:13.872Z,8.80
2018-02-21T14:55:41.427Z,8.30
2018-02-21T14:58:09.060Z,8.47
2018-02-21T15:00:36.678Z,7.70
2018-02-21T15:03:04.158Z,7.23
2018-02-21T15:05:31.910Z,8.20
2018-02-21T15:07:59.456Z,8.13
2018-02-21T15:10:27.095Z,7.27
2018-02-21T15:12:54.683Z,8.50
2018-02-21T15:15:22.485Z,6.77
2018-02-21T15:17:50.013Z,8.80
2018-02-21T15:20:17.599Z,8.57
2018-02-21T15:22:45.153Z,8.57
2018-02-21T15:25:13.652Z,9.33
2018-02-21T15:27:41.203Z,9.87
2018-02-21T15:30:08.833Z,9.23
2018-02-21T15:32:36.396Z,9.70
2018-02-21T15:35:03.955Z,9.83
2018-02-21T15:37:32.501Z,11.00
2018-02-21T15:40:00.094Z,9.73
2018-02-21T15:42:27.699Z,10.07
2018-02-21T15:44:55.303Z,8.97
2018-02-21T15:47:22.876Z,9.97
2018-02-21T15:49:50.429Z,8.73
2018-02-21T15:52:18.198Z,9.20
2018-02-21T15:54:45.756Z,10.27
2018-02-21T15:57:13.921Z,10.23
2018-02-21T15:59:41.744Z,11.53
2018-02-21T16:02:09.298Z,10.30
2018-02-21T16:04:37.600Z,8.50
2018-02-21T16:07:05.141Z,10.40
2018-02-21T16:09:32.953Z,9.97
2018-02-21T16:12:00.700Z,10.33
2018-02-21T16:14:28.387Z,10.10
2018-02-21T16:16:56.124Z,9.70
2018-02-21T16:19:23.688Z,7.63
2018-02-21T16:21:51.329Z,9.83
2018-02-21T16:24:18.916Z,10.53
2018-02-21T16:26:46.588Z,11.30
2018-02-21T16:29:14.624Z,10.67
2018-02-21T16:31:43.006Z,9.83
2018-02-21T16:34:11.318Z,10.93
2018-02-21T16:36:38.942Z,11.10
2018-02-21T16:39:06.944Z,9.97
2018-02-21T16:41:34.467Z,9.87
2018-02-21T16:44:02.055Z,8.23
2018-02-21T16:46:29.610Z,9.07
2018-02-21T16:48:57.201Z,10.40
2018-02-21T16:51:24.991Z,8.83
2018-02-21T16:53:58.221Z,10.03
2018-02-21T16:56:26.083Z,7.90
2018-02-21T16:58:54.871Z,9.57
2018-02-21T17:01:23.984Z,7.77
2018-02-21T17:03:52.202Z,9.93
2018-02-21T17:06:20.531Z,10.53
2018-02-21T17:08:48.178Z,9.40
2018-02-21T17:11:16.876Z,10.63
2018-02-21T17:13:44.440Z,10.73
2018-02-21T17:16:12.372Z,9.67
2018-02-21T17:18:40.267Z,10.10
2018-02-21T17:21:07.798Z,9.27
2018-02-21T17:23:35.687Z,9.43
2018-02-21T17:26:03.265Z,10.17
2018-02-21T17:28:31.510Z,11.00
2018-02-21T17:30:59.159Z,9.77
2018-02-21T17:33:27.773Z,10.50
2018-02-21T17:35:55.402Z,9.23
2018-02-21T17:38:23.790Z,10.17
2018-02-21T17:40:57.480Z,10.40
2018-02-21T17:43:25.839Z,9.07
2018-02-21T17:45:53.404Z,10.20
2018-02-21T17:48:21.050Z,11.50
2018-02-21T17:50:48.593Z,11.17
2018-02-21T17:53:16.177Z,11.07
2018-02-21T17:55:43.904Z,10.73
2018-02-21T17:58:11.491Z,10.60
2018-02-21T18:00:39.825Z,10.57
2018-02-21T18:03:07.407Z,11.20
2018-02-21T18:05:35.064Z,10.70
2018-02-21T18:08:02.591Z,10.00
2018-02-21T18:10:30.149Z,9.70
2018-02-21T18:12:58.073Z,10.30
2018-02-21T18:15:26.577Z,10.27
2018-02-21T18:17:54.327Z,11.23
2018-02-21T18:20:21.987Z,11.20
2018-02-21T18:22:49.596Z,11.80
2018-02-21T18:25:17.316Z,10.63
2018-02-21T18:27:44.895Z,11.90
2018-02-21T18:30:12.467Z,11.27
2018-02-21T18:32:40.758Z,12.27
2018-02-21T18:35:09.082Z,13.13
2018-02-21T18:37:36.913Z,13.83
2018-02-21T18:40:04.538Z,15.03
2018-02-21T18:42:32.039Z,12.23
2018-02-21T18:44:59.567Z,15.10
2018-02-21T18:47:27.092Z,13.83
2018-02-21T18:49:54.652Z,15.50
2018-02-21T18:52:22.255Z,15.13
2018-02-21T18:54:49.804Z,15.53
2018-02-21T18:57:18.213Z,14.30
2018-02-21T18:59:45.862Z,16.30
2018-02-21T19:02:13.400Z,15.37
2018-02-21T19:04:40.997Z,15.40
2018-02-21T19:07:08.547Z,17.80
2018-02-21T19:09:36.569Z,16.77
2018-02-21T19:12:04.136Z,27.13
2018-02-21T19:14:31.686Z,21.63
2018-02-21T19:16:59.240Z,16.97
2018-02-21T19:19:26.799Z,21.37
2018-02-21T19:21:54.537Z,15.97
2018-02-21T19:24:22.093Z,15.87
2018-02-21T19:26:50.485Z,14.43
2018-02-21T19:29:18.437Z,14.83
2018-02-21T19:31:45.996Z,16.80
2018-02-21T19:34:13.546Z,14.03
2018-02-21T19:36:41.139Z,14.33
2018-02-21T19:39:08.671Z,14.17
2018-02-21T19:41:36.223Z,16.43
2018-02-21T19:44:04.809Z,16.60
2018-02-21T19:46:32.580Z,14.03
2018-02-21T19:49:00.135Z,15.80
2018-02-21T19:51:27.666Z,14.87
2018-02-21T19:53:55.174Z,15.33
2018-02-21T19:56:22.708Z,13.70
2018-02-21T19:58:51.117Z,13.80
2018-02-21T20:01:18.735Z,12.97
2018-02-21T20:03:47.033Z,11.60
2018-02-21T20:06:14.783Z,12.70
2018-02-21T20:08:43.967Z,10.77
2018-02-21T20:11:12.599Z,11.23
2018-02-21T20:13:40.166Z,12.30
2018-02-21T20:16:08.845Z,11.47
2018-02-21T20:18:36.772Z,13.67
2018-02-21T20:21:05.211Z,12.23
2018-02-21T20:23:32.871Z,10.33
2018-02-21T20:26:00.447Z,11.37
2018-02-21T20:28:28.437Z,13.10
2018-02-21T20:30:56.028Z,12.03
2018-02-21T20:33:23.887Z,11.93
2018-02-21T20:35:51.436Z,11.77
2018-02-21T20:38:19.661Z,11.07
2018-02-21T20:40:47.202Z,11.90
2018-02-21T20:43:14.755Z,11.10
2018-02-21T20:45:42.304Z,12.17
2018-02-21T20:48:10.115Z,11.20
2018-02-21T20:50:39.613Z,11.37
2018-02-21T20:53:07.312Z,11.83
2018-02-21T20:55:35.693Z,11.10
2018-02-21T20:58:03.598Z,11.47
2018-02-21T21:00:31.340Z,12.10
2018-02-21T21:03:00.175Z,11.70
2018-02-21T21:05:28.967Z,11.20
2018-02-21T21:07:56.508Z,11.47
2018-02-21T21:10:24.185Z,11.17
2018-02-21T21:12:51.742Z,11.00
2018-02-21T21:15:19.280Z,12.07
2018-02-21T21:17:46.816Z,11.40
2018-02-21T21:20:15.112Z,11.00
2018-02-21T21:22:42.713Z,10.77
2018-02-21T21:25:10.280Z,10.47
2018-02-21T21:27:37.838Z,11.13
2018-02-21T21:30:06.524Z,11.90
2018-02-21T21:32:34.834Z,10.37
2018-02-21T21:35:02.515Z,10.30
2018-02-21T21:37:30.134Z,10.90
2018-02-21T21:39:57.696Z,11.70
2018-02-21T21:42:26.321Z,11.17
2018-02-21T21:44:53.867Z,11.93
2018-02-21T21:47:21.445Z,12.50
2018-02-21T21:49:49.002Z,11.70
2018-02-21T21:52:16.672Z,12.43
2018-02-21T21:54:45.039Z,12.27
2018-02-21T21:57:13.379Z,13.33
2018-02-21T21:59:41.311Z,10.90
2018-02-21T22:02:09.139Z,11.87
2018-02-21T22:04:37.487Z,11.80
2018-02-21T22:07:05.196Z,12.60
2018-02-21T22:09:32.790Z,11.90
2018-02-21T22:12:00.392Z,11.37
2018-02-21T22:14:28.013Z,11.17
2018-02-21T22:16:57.021Z,8.37
2018-02-21T22:19:26.339Z,13.50
2018-02-21T22:21:54.130Z,12.03
2018-02-21T22:24:23.370Z,13.83
2018-02-21T22:26:50.937Z,11.73
2018-02-21T22:29:18.485Z,11.90
2018-02-21T22:31:46.048Z,11.63
2018-02-21T22:34:13.604Z,11.57
2018-02-21T22:36:41.879Z,11.50
2018-02-21T22:39:09.449Z,12.40
2018-02-21T22:41:40.196Z,11.63
2018-02-21T22:44:07.767Z,12.43
2018-02-21T22:46:35.416Z,11.47
2018-02-21T22:49:02.960Z,10.73
2018-02-21T22:51:31.279Z,11.43
2018-02-21T22:53:59.694Z,14.30
2018-02-21T22:56:27.559Z,13.27
2018-02-21T22:58:55.284Z,12.90
2018-02-21T23:01:22.886Z,13.07
2018-02-21T23:03:50.401Z,12.67
2018-02-21T23:06:18.026Z,13.30
2018-02-21T23:08:45.572Z,13.07
2018-02-21T23:11:13.187Z,12.43
2018-02-21T23:13:42.012Z,13.03
2018-02-21T23:16:09.757Z,13.07
2018-02-21T23:18:37.454Z,13.03
2018-02-21T23:21:05.016Z,14.93
2018-02-21T23:23:32.629Z,12.37
2018-02-21T23:26:00.179Z,12.70
2018-02-21T23:28:27.899Z,13.53
2018-02-21T23:30:55.965Z,13.90
2018-02-21T23:33:23.841Z,13.63
2018-02-21T23:35:51.375Z,12.33
2018-02-21T23:38:19.877Z,12.47
2018-02-21T23:40:48.620Z,14.23
2018-02-21T23:43:16.248Z,13.83
2018-02-21T23:45:43.775Z,12.87
2018-02-21T23:48:12.417Z,13.77
2018-02-21T23:50:40.191Z,12.77
2018-02-21T23:53:07.880Z,15.73
2018-02-21T23:55:35.371Z,11.40
2018-02-21T23:58:02.896Z,13.77
